sensor_id;sensor_type;location;lat;lon;timestamp;P1;durP1;ratioP1;P2;durP2;ratioP2
74293;SDS011;64044;59.904;10.738;2023-08-30T00:00:19;3.40;;;1.27;;
74293;SDS011;64044;59.904;10.738;2023-08-30T00:02:48;8.52;;;2.65;;
74293;SDS011;64044;59.904;10.738;2023-08-30T00:05:13;6.47;;;1.98;;
74293;SDS011;64044;59.904;10.738;2023-08-30T00:07:39;6.53;;;2.67;;
74293;SDS011;64044;59.904;10.738;2023-08-30T00:12:56;8.13;;;2.42;;
74293;SDS011;64044;59.904;10.738;2023-08-30T00:15:22;5.95;;;2.60;;
74293;SDS011;64044;59.904;10.738;2023-08-30T00:17:47;7.05;;;3.50;;
74293;SDS011;64044;59.904;10.738;2023-08-30T00:20:13;5.70;;;3.17;;
74293;SDS011;64044;59.904;10.738;2023-08-30T00:22:39;4.55;;;1.83;;
74293;SDS011;64044;59.904;10.738;2023-08-30T00:25:04;6.00;;;1.65;;
74293;SDS011;64044;59.904;10.738;2023-08-30T00:27:30;9.15;;;2.30;;
74293;SDS011;64044;59.904;10.738;2023-08-30T00:29:56;3.85;;;1.63;;
74293;SDS011;64044;59.904;10.738;2023-08-30T00:32:22;4.15;;;1.20;;
74293;SDS011;64044;59.904;10.738;2023-08-30T00:34:50;1.10;;;0.90;;
74293;SDS011;64044;59.904;10.738;2023-08-30T00:37:17;2.65;;;1.08;;
74293;SDS011;64044;59.904;10.738;2023-08-30T00:39:42;2.13;;;0.90;;
74293;SDS011;64044;59.904;10.738;2023-08-30T00:42:08;1.55;;;0.75;;
74293;SDS011;64044;59.904;10.738;2023-08-30T00:44:34;4.53;;;1.13;;
74293;SDS011;64044;59.904;10.738;2023-08-30T00:47:03;3.75;;;1.35;;
74293;SDS011;64044;59.904;10.738;2023-08-30T00:49:29;6.68;;;1.50;;
74293;SDS011;64044;59.904;10.738;2023-08-30T00:51:56;4.53;;;0.85;;
74293;SDS011;64044;59.904;10.738;2023-08-30T00:54:26;3.70;;;0.88;;
74293;SDS011;64044;59.904;10.738;2023-08-30T00:56:52;4.18;;;1.30;;
74293;SDS011;64044;59.904;10.738;2023-08-30T00:59:19;3.25;;;0.80;;
74293;SDS011;64044;59.904;10.738;2023-08-30T01:01:45;2.55;;;0.95;;
74293;SDS011;64044;59.904;10.738;2023-08-30T01:04:11;2.15;;;0.98;;
74293;SDS011;64044;59.904;10.738;2023-08-30T01:06:36;3.10;;;0.93;;
74293;SDS011;64044;59.904;10.738;2023-08-30T01:09:02;5.43;;;0.95;;
74293;SDS011;64044;59.904;10.738;2023-08-30T01:14:08;5.00;;;1.05;;
74293;SDS011;64044;59.904;10.738;2023-08-30T01:16:45;3.85;;;1.25;;
74293;SDS011;64044;59.904;10.738;2023-08-30T01:19:24;4.38;;;1.25;;
74293;SDS011;64044;59.904;10.738;2023-08-30T01:22:15;3.40;;;1.02;;
74293;SDS011;64044;59.904;10.738;2023-08-30T01:27:25;2.00;;;0.95;;
74293;SDS011;64044;59.904;10.738;2023-08-30T01:29:51;3.00;;;0.80;;
74293;SDS011;64044;59.904;10.738;2023-08-30T01:32:21;2.45;;;0.98;;
74293;SDS011;64044;59.904;10.738;2023-08-30T01:34:50;3.05;;;1.10;;
74293;SDS011;64044;59.904;10.738;2023-08-30T01:37:16;2.08;;;1.08;;
74293;SDS011;64044;59.904;10.738;2023-08-30T01:39:43;7.50;;;1.02;;
74293;SDS011;64044;59.904;10.738;2023-08-30T01:42:09;3.42;;;1.10;;
74293;SDS011;64044;59.904;10.738;2023-08-30T01:44:36;2.45;;;1.08;;
74293;SDS011;64044;59.904;10.738;2023-08-30T01:47:06;4.18;;;1.02;;
74293;SDS011;64044;59.904;10.738;2023-08-30T01:49:32;3.42;;;1.50;;
74293;SDS011;64044;59.904;10.738;2023-08-30T01:51:59;5.53;;;1.55;;
74293;SDS011;64044;59.904;10.738;2023-08-30T01:54:26;3.58;;;1.40;;
74293;SDS011;64044;59.904;10.738;2023-08-30T01:56:52;5.22;;;1.23;;
74293;SDS011;64044;59.904;10.738;2023-08-30T01:59:18;2.13;;;0.90;;
74293;SDS011;64044;59.904;10.738;2023-08-30T02:01:44;4.55;;;1.30;;
74293;SDS011;64044;59.904;10.738;2023-08-30T02:04:09;6.18;;;1.35;;
74293;SDS011;64044;59.904;10.738;2023-08-30T02:06:42;4.07;;;1.33;;
74293;SDS011;64044;59.904;10.738;2023-08-30T02:09:24;3.50;;;1.20;;
74293;SDS011;64044;59.904;10.738;2023-08-30T02:11:55;3.08;;;1.10;;
74293;SDS011;64044;59.904;10.738;2023-08-30T02:14:25;4.93;;;1.57;;
74293;SDS011;64044;59.904;10.738;2023-08-30T02:16:52;3.38;;;1.17;;
74293;SDS011;64044;59.904;10.738;2023-08-30T02:19:20;5.07;;;1.30;;
74293;SDS011;64044;59.904;10.738;2023-08-30T02:21:46;2.35;;;1.42;;
74293;SDS011;64044;59.904;10.738;2023-08-30T02:24:13;6.72;;;1.70;;
74293;SDS011;64044;59.904;10.738;2023-08-30T02:26:39;2.45;;;1.38;;
74293;SDS011;64044;59.904;10.738;2023-08-30T02:29:05;4.75;;;1.42;;
74293;SDS011;64044;59.904;10.738;2023-08-30T02:31:31;3.20;;;1.00;;
74293;SDS011;64044;59.904;10.738;2023-08-30T02:33:57;6.25;;;1.30;;
74293;SDS011;64044;59.904;10.738;2023-08-30T02:36:22;5.03;;;1.58;;
74293;SDS011;64044;59.904;10.738;2023-08-30T02:38:48;3.70;;;1.17;;
74293;SDS011;64044;59.904;10.738;2023-08-30T02:41:14;3.03;;;1.23;;
74293;SDS011;64044;59.904;10.738;2023-08-30T02:43:39;5.10;;;1.35;;
74293;SDS011;64044;59.904;10.738;2023-08-30T02:46:05;4.60;;;2.33;;
74293;SDS011;64044;59.904;10.738;2023-08-30T02:48:34;5.43;;;1.25;;
74293;SDS011;64044;59.904;10.738;2023-08-30T02:50:59;5.03;;;1.42;;
74293;SDS011;64044;59.904;10.738;2023-08-30T02:53:25;2.88;;;1.00;;
74293;SDS011;64044;59.904;10.738;2023-08-30T02:55:51;3.45;;;1.40;;
74293;SDS011;64044;59.904;10.738;2023-08-30T02:58:20;1.75;;;1.02;;
74293;SDS011;64044;59.904;10.738;2023-08-30T03:00:46;3.65;;;1.27;;
74293;SDS011;64044;59.904;10.738;2023-08-30T03:03:12;2.83;;;1.33;;
74293;SDS011;64044;59.904;10.738;2023-08-30T03:05:37;3.55;;;1.50;;
74293;SDS011;64044;59.904;10.738;2023-08-30T03:08:03;1.75;;;1.05;;
74293;SDS011;64044;59.904;10.738;2023-08-30T03:10:29;3.33;;;1.40;;
74293;SDS011;64044;59.904;10.738;2023-08-30T03:12:55;3.78;;;1.17;;
74293;SDS011;64044;59.904;10.738;2023-08-30T03:15:20;3.67;;;1.50;;
74293;SDS011;64044;59.904;10.738;2023-08-30T03:17:46;2.47;;;1.60;;
74293;SDS011;64044;59.904;10.738;2023-08-30T03:20:12;2.50;;;1.60;;
74293;SDS011;64044;59.904;10.738;2023-08-30T03:22:37;5.22;;;1.35;;
74293;SDS011;64044;59.904;10.738;2023-08-30T03:25:03;4.50;;;1.05;;
74293;SDS011;64044;59.904;10.738;2023-08-30T03:27:29;5.32;;;1.60;;
74293;SDS011;64044;59.904;10.738;2023-08-30T03:29:55;5.93;;;1.45;;
74293;SDS011;64044;59.904;10.738;2023-08-30T03:32:21;5.88;;;1.40;;
74293;SDS011;64044;59.904;10.738;2023-08-30T03:34:47;3.22;;;1.52;;
74293;SDS011;64044;59.904;10.738;2023-08-30T03:37:13;3.97;;;1.40;;
74293;SDS011;64044;59.904;10.738;2023-08-30T03:39:40;3.55;;;1.42;;
74293;SDS011;64044;59.904;10.738;2023-08-30T03:42:05;5.00;;;1.42;;
74293;SDS011;64044;59.904;10.738;2023-08-30T03:44:31;6.30;;;1.27;;
74293;SDS011;64044;59.904;10.738;2023-08-30T03:46:57;4.57;;;1.50;;
74293;SDS011;64044;59.904;10.738;2023-08-30T03:49:23;7.60;;;1.70;;
74293;SDS011;64044;59.904;10.738;2023-08-30T03:51:48;4.68;;;1.15;;
74293;SDS011;64044;59.904;10.738;2023-08-30T03:54:14;9.73;;;2.10;;
74293;SDS011;64044;59.904;10.738;2023-08-30T03:56:42;6.88;;;1.58;;
74293;SDS011;64044;59.904;10.738;2023-08-30T03:59:08;5.13;;;1.73;;
74293;SDS011;64044;59.904;10.738;2023-08-30T04:01:34;3.15;;;1.63;;
74293;SDS011;64044;59.904;10.738;2023-08-30T04:03:59;5.40;;;2.10;;
74293;SDS011;64044;59.904;10.738;2023-08-30T04:06:25;4.32;;;0.98;;
74293;SDS011;64044;59.904;10.738;2023-08-30T04:08:51;3.08;;;1.30;;
74293;SDS011;64044;59.904;10.738;2023-08-30T04:11:16;2.60;;;1.33;;
74293;SDS011;64044;59.904;10.738;2023-08-30T04:13:42;2.08;;;1.15;;
74293;SDS011;64044;59.904;10.738;2023-08-30T04:16:08;4.13;;;1.63;;
74293;SDS011;64044;59.904;10.738;2023-08-30T04:18:33;9.65;;;1.98;;
74293;SDS011;64044;59.904;10.738;2023-08-30T04:20:59;5.32;;;2.47;;
74293;SDS011;64044;59.904;10.738;2023-08-30T04:23:27;4.78;;;2.20;;
74293;SDS011;64044;59.904;10.738;2023-08-30T04:25:54;4.43;;;1.70;;
74293;SDS011;64044;59.904;10.738;2023-08-30T04:28:20;4.65;;;1.27;;
74293;SDS011;64044;59.904;10.738;2023-08-30T04:30:46;3.15;;;1.15;;
74293;SDS011;64044;59.904;10.738;2023-08-30T04:33:12;5.20;;;1.60;;
74293;SDS011;64044;59.904;10.738;2023-08-30T04:35:38;4.10;;;1.55;;
74293;SDS011;64044;59.904;10.738;2023-08-30T04:38:04;3.33;;;1.42;;
74293;SDS011;64044;59.904;10.738;2023-08-30T04:40:30;2.42;;;1.40;;
74293;SDS011;64044;59.904;10.738;2023-08-30T04:43:00;3.45;;;1.52;;
74293;SDS011;64044;59.904;10.738;2023-08-30T04:45:26;2.63;;;1.27;;
74293;SDS011;64044;59.904;10.738;2023-08-30T04:47:52;4.28;;;1.42;;
74293;SDS011;64044;59.904;10.738;2023-08-30T04:50:18;3.40;;;1.33;;
74293;SDS011;64044;59.904;10.738;2023-08-30T04:52:44;2.60;;;1.45;;
74293;SDS011;64044;59.904;10.738;2023-08-30T04:55:10;4.40;;;1.33;;
74293;SDS011;64044;59.904;10.738;2023-08-30T04:57:36;3.42;;;1.30;;
74293;SDS011;64044;59.904;10.738;2023-08-30T05:00:02;3.90;;;1.48;;
74293;SDS011;64044;59.904;10.738;2023-08-30T05:02:30;5.07;;;1.30;;
74293;SDS011;64044;59.904;10.738;2023-08-30T05:04:56;2.63;;;1.67;;
74293;SDS011;64044;59.904;10.738;2023-08-30T05:07:21;4.50;;;1.55;;
74293;SDS011;64044;59.904;10.738;2023-08-30T05:09:47;3.80;;;1.42;;
74293;SDS011;64044;59.904;10.738;2023-08-30T05:12:13;4.10;;;1.70;;
74293;SDS011;64044;59.904;10.738;2023-08-30T05:14:39;3.63;;;1.58;;
74293;SDS011;64044;59.904;10.738;2023-08-30T05:17:06;3.85;;;1.85;;
74293;SDS011;64044;59.904;10.738;2023-08-30T05:19:32;3.35;;;1.77;;
74293;SDS011;64044;59.904;10.738;2023-08-30T05:22:23;2.95;;;2.00;;
74293;SDS011;64044;59.904;10.738;2023-08-30T05:24:49;2.88;;;1.48;;
74293;SDS011;64044;59.904;10.738;2023-08-30T05:27:15;3.90;;;1.80;;
74293;SDS011;64044;59.904;10.738;2023-08-30T05:29:43;3.55;;;1.60;;
74293;SDS011;64044;59.904;10.738;2023-08-30T05:32:08;4.00;;;2.00;;
74293;SDS011;64044;59.904;10.738;2023-08-30T05:34:34;3.50;;;1.45;;
74293;SDS011;64044;59.904;10.738;2023-08-30T05:37:00;4.13;;;1.63;;
74293;SDS011;64044;59.904;10.738;2023-08-30T05:39:25;10.05;;;2.20;;
74293;SDS011;64044;59.904;10.738;2023-08-30T05:41:51;3.45;;;1.67;;
74293;SDS011;64044;59.904;10.738;2023-08-30T05:44:17;4.57;;;1.90;;
74293;SDS011;64044;59.904;10.738;2023-08-30T05:46:42;4.97;;;2.08;;
74293;SDS011;64044;59.904;10.738;2023-08-30T05:49:08;4.00;;;2.05;;
74293;SDS011;64044;59.904;10.738;2023-08-30T05:51:34;4.40;;;2.08;;
74293;SDS011;64044;59.904;10.738;2023-08-30T05:53:59;4.28;;;1.77;;
74293;SDS011;64044;59.904;10.738;2023-08-30T05:56:25;5.35;;;2.05;;
74293;SDS011;64044;59.904;10.738;2023-08-30T05:58:51;5.03;;;2.03;;
74293;SDS011;64044;59.904;10.738;2023-08-30T06:01:17;4.32;;;2.20;;
74293;SDS011;64044;59.904;10.738;2023-08-30T06:03:45;5.30;;;2.30;;
74293;SDS011;64044;59.904;10.738;2023-08-30T06:06:11;6.75;;;2.15;;
74293;SDS011;64044;59.904;10.738;2023-08-30T06:08:37;4.00;;;1.85;;
74293;SDS011;64044;59.904;10.738;2023-08-30T06:11:03;4.20;;;1.90;;
74293;SDS011;64044;59.904;10.738;2023-08-30T06:13:29;5.93;;;2.83;;
74293;SDS011;64044;59.904;10.738;2023-08-30T06:15:54;7.43;;;2.33;;
74293;SDS011;64044;59.904;10.738;2023-08-30T06:18:20;5.85;;;2.40;;
74293;SDS011;64044;59.904;10.738;2023-08-30T06:20:46;4.07;;;2.00;;
74293;SDS011;64044;59.904;10.738;2023-08-30T06:23:13;5.55;;;2.20;;
74293;SDS011;64044;59.904;10.738;2023-08-30T06:25:40;7.50;;;2.42;;
74293;SDS011;64044;59.904;10.738;2023-08-30T06:28:06;4.53;;;2.10;;
74293;SDS011;64044;59.904;10.738;2023-08-30T06:30:31;5.85;;;2.45;;
74293;SDS011;64044;59.904;10.738;2023-08-30T06:32:57;6.22;;;2.47;;
74293;SDS011;64044;59.904;10.738;2023-08-30T06:35:23;6.75;;;2.47;;
74293;SDS011;64044;59.904;10.738;2023-08-30T06:37:49;4.95;;;1.95;;
74293;SDS011;64044;59.904;10.738;2023-08-30T06:40:15;4.25;;;2.60;;
74293;SDS011;64044;59.904;10.738;2023-08-30T06:42:41;5.63;;;2.60;;
74293;SDS011;64044;59.904;10.738;2023-08-30T06:45:07;4.18;;;2.67;;
74293;SDS011;64044;59.904;10.738;2023-08-30T06:47:33;3.40;;;1.63;;
74293;SDS011;64044;59.904;10.738;2023-08-30T06:50:00;4.22;;;1.95;;
74293;SDS011;64044;59.904;10.738;2023-08-30T06:52:26;5.28;;;2.22;;
74293;SDS011;64044;59.904;10.738;2023-08-30T06:54:52;3.38;;;1.90;;
74293;SDS011;64044;59.904;10.738;2023-08-30T06:57:18;6.72;;;2.25;;
74293;SDS011;64044;59.904;10.738;2023-08-30T06:59:43;4.40;;;1.92;;
74293;SDS011;64044;59.904;10.738;2023-08-30T07:02:09;7.30;;;2.30;;
74293;SDS011;64044;59.904;10.738;2023-08-30T07:04:35;4.97;;;2.22;;
74293;SDS011;64044;59.904;10.738;2023-08-30T07:07:00;2.60;;;1.77;;
74293;SDS011;64044;59.904;10.738;2023-08-30T07:09:26;3.10;;;1.73;;
74293;SDS011;64044;59.904;10.738;2023-08-30T07:11:57;3.87;;;2.23;;
74293;SDS011;64044;59.904;10.738;2023-08-30T07:14:23;3.65;;;2.10;;
74293;SDS011;64044;59.904;10.738;2023-08-30T07:16:48;4.85;;;2.33;;
74293;SDS011;64044;59.904;10.738;2023-08-30T07:19:15;5.68;;;1.85;;
74293;SDS011;64044;59.904;10.738;2023-08-30T07:21:41;4.70;;;2.35;;
74293;SDS011;64044;59.904;10.738;2023-08-30T07:24:07;5.28;;;2.15;;
74293;SDS011;64044;59.904;10.738;2023-08-30T07:26:33;9.88;;;2.60;;
74293;SDS011;64044;59.904;10.738;2023-08-30T07:28:59;4.15;;;2.25;;
74293;SDS011;64044;59.904;10.738;2023-08-30T07:31:25;10.63;;;2.60;;
74293;SDS011;64044;59.904;10.738;2023-08-30T07:33:50;4.22;;;2.55;;
74293;SDS011;64044;59.904;10.738;2023-08-30T07:36:16;5.30;;;2.75;;
74293;SDS011;64044;59.904;10.738;2023-08-30T07:38:42;4.82;;;2.65;;
74293;SDS011;64044;59.904;10.738;2023-08-30T07:41:09;6.97;;;2.63;;
74293;SDS011;64044;59.904;10.738;2023-08-30T07:43:35;4.25;;;2.58;;
74293;SDS011;64044;59.904;10.738;2023-08-30T07:46:00;6.25;;;3.05;;
74293;SDS011;64044;59.904;10.738;2023-08-30T07:48:27;4.80;;;2.97;;
74293;SDS011;64044;59.904;10.738;2023-08-30T07:50:52;5.80;;;3.20;;
74293;SDS011;64044;59.904;10.738;2023-08-30T07:53:18;4.25;;;2.45;;
74293;SDS011;64044;59.904;10.738;2023-08-30T07:55:47;3.40;;;2.13;;
74293;SDS011;64044;59.904;10.738;2023-08-30T07:58:19;4.13;;;1.70;;
74293;SDS011;64044;59.904;10.738;2023-08-30T08:00:44;4.60;;;2.20;;
74293;SDS011;64044;59.904;10.738;2023-08-30T08:03:10;4.20;;;2.00;;
74293;SDS011;64044;59.904;10.738;2023-08-30T08:05:36;3.63;;;2.05;;
74293;SDS011;64044;59.904;10.738;2023-08-30T08:08:02;4.22;;;2.83;;
74293;SDS011;64044;59.904;10.738;2023-08-30T08:10:32;2.65;;;1.83;;
74293;SDS011;64044;59.904;10.738;2023-08-30T08:13:01;2.47;;;1.60;;
74293;SDS011;64044;59.904;10.738;2023-08-30T08:15:29;3.15;;;1.77;;
74293;SDS011;64044;59.904;10.738;2023-08-30T08:17:59;4.57;;;2.00;;
74293;SDS011;64044;59.904;10.738;2023-08-30T08:20:25;4.47;;;1.92;;
74293;SDS011;64044;59.904;10.738;2023-08-30T08:22:51;4.63;;;2.00;;
74293;SDS011;64044;59.904;10.738;2023-08-30T08:25:16;4.55;;;1.63;;
74293;SDS011;64044;59.904;10.738;2023-08-30T08:27:42;2.65;;;1.92;;
74293;SDS011;64044;59.904;10.738;2023-08-30T08:30:08;2.67;;;1.63;;
74293;SDS011;64044;59.904;10.738;2023-08-30T08:32:35;2.85;;;1.90;;
74293;SDS011;64044;59.904;10.738;2023-08-30T08:35:01;2.70;;;1.77;;
74293;SDS011;64044;59.904;10.738;2023-08-30T08:37:27;2.05;;;1.52;;
74293;SDS011;64044;59.904;10.738;2023-08-30T08:39:53;2.25;;;1.30;;
74293;SDS011;64044;59.904;10.738;2023-08-30T08:42:19;5.75;;;1.98;;
74293;SDS011;64044;59.904;10.738;2023-08-30T08:44:47;4.85;;;1.90;;
74293;SDS011;64044;59.904;10.738;2023-08-30T08:47:16;3.40;;;1.50;;
74293;SDS011;64044;59.904;10.738;2023-08-30T08:49:44;2.70;;;1.40;;
74293;SDS011;64044;59.904;10.738;2023-08-30T08:52:09;4.05;;;1.45;;
74293;SDS011;64044;59.904;10.738;2023-08-30T08:54:39;3.10;;;1.60;;
74293;SDS011;64044;59.904;10.738;2023-08-30T08:57:06;2.30;;;1.42;;
74293;SDS011;64044;59.904;10.738;2023-08-30T08:59:32;1.95;;;1.30;;
74293;SDS011;64044;59.904;10.738;2023-08-30T09:01:59;4.45;;;1.67;;
74293;SDS011;64044;59.904;10.738;2023-08-30T09:04:26;6.63;;;2.47;;
74293;SDS011;64044;59.904;10.738;2023-08-30T09:06:54;2.30;;;1.40;;
74293;SDS011;64044;59.904;10.738;2023-08-30T09:09:20;4.13;;;1.52;;
74293;SDS011;64044;59.904;10.738;2023-08-30T09:11:46;3.58;;;1.58;;
74293;SDS011;64044;59.904;10.738;2023-08-30T09:14:12;3.53;;;1.75;;
74293;SDS011;64044;59.904;10.738;2023-08-30T09:16:38;2.28;;;1.55;;
74293;SDS011;64044;59.904;10.738;2023-08-30T09:19:04;2.92;;;1.77;;
74293;SDS011;64044;59.904;10.738;2023-08-30T09:21:30;3.83;;;1.50;;
74293;SDS011;64044;59.904;10.738;2023-08-30T09:23:59;3.25;;;1.50;;
74293;SDS011;64044;59.904;10.738;2023-08-30T09:26:29;2.93;;;1.37;;
74293;SDS011;64044;59.904;10.738;2023-08-30T09:29:04;2.42;;;1.20;;
74293;SDS011;64044;59.904;10.738;2023-08-30T09:31:35;3.95;;;1.38;;
74293;SDS011;64044;59.904;10.738;2023-08-30T09:34:02;2.88;;;1.48;;
74293;SDS011;64044;59.904;10.738;2023-08-30T09:36:41;2.80;;;1.23;;
74293;SDS011;64044;59.904;10.738;2023-08-30T09:41:49;2.35;;;1.50;;
74293;SDS011;64044;59.904;10.738;2023-08-30T09:44:16;3.35;;;1.60;;
74293;SDS011;64044;59.904;10.738;2023-08-30T09:46:44;2.15;;;1.15;;
74293;SDS011;64044;59.904;10.738;2023-08-30T09:49:12;1.67;;;1.13;;
74293;SDS011;64044;59.904;10.738;2023-08-30T09:51:41;2.47;;;1.40;;
74293;SDS011;64044;59.904;10.738;2023-08-30T09:54:10;3.83;;;1.63;;
74293;SDS011;64044;59.904;10.738;2023-08-30T09:56:44;2.80;;;1.17;;
74293;SDS011;64044;59.904;10.738;2023-08-30T09:59:11;2.78;;;1.25;;
74293;SDS011;64044;59.904;10.738;2023-08-30T10:01:43;3.47;;;1.42;;
74293;SDS011;64044;59.904;10.738;2023-08-30T10:04:11;2.08;;;1.27;;
74293;SDS011;64044;59.904;10.738;2023-08-30T10:06:37;3.80;;;1.15;;
74293;SDS011;64044;59.904;10.738;2023-08-30T10:09:04;2.22;;;1.05;;
74293;SDS011;64044;59.904;10.738;2023-08-30T10:11:34;1.70;;;0.98;;
74293;SDS011;64044;59.904;10.738;2023-08-30T10:14:02;1.58;;;1.02;;
74293;SDS011;64044;59.904;10.738;2023-08-30T10:16:29;3.65;;;1.00;;
74293;SDS011;64044;59.904;10.738;2023-08-30T10:19:28;3.05;;;1.08;;
74293;SDS011;64044;59.904;10.738;2023-08-30T10:22:01;1.67;;;1.05;;
74293;SDS011;64044;59.904;10.738;2023-08-30T10:24:28;1.42;;;0.80;;
74293;SDS011;64044;59.904;10.738;2023-08-30T10:27:05;4.20;;;1.02;;
74293;SDS011;64044;59.904;10.738;2023-08-30T10:29:33;1.42;;;0.85;;
74293;SDS011;64044;59.904;10.738;2023-08-30T10:32:01;1.65;;;0.85;;
74293;SDS011;64044;59.904;10.738;2023-08-30T10:34:31;1.05;;;0.85;;
74293;SDS011;64044;59.904;10.738;2023-08-30T10:37:01;2.80;;;0.82;;
74293;SDS011;64044;59.904;10.738;2023-08-30T10:39:38;1.45;;;1.00;;
74293;SDS011;64044;59.904;10.738;2023-08-30T10:42:09;7.30;;;5.22;;
74293;SDS011;64044;59.904;10.738;2023-08-30T10:47:36;3.67;;;1.10;;
74293;SDS011;64044;59.904;10.738;2023-08-30T10:50:09;2.58;;;1.17;;
74293;SDS011;64044;59.904;10.738;2023-08-30T10:55:29;1.00;;;0.80;;
74293;SDS011;64044;59.904;10.738;2023-08-30T10:58:01;2.67;;;1.05;;
74293;SDS011;64044;59.904;10.738;2023-08-30T11:00:29;2.83;;;1.17;;
74293;SDS011;64044;59.904;10.738;2023-08-30T11:02:56;2.92;;;1.30;;
74293;SDS011;64044;59.904;10.738;2023-08-30T11:05:22;1.88;;;0.80;;
74293;SDS011;64044;59.904;10.738;2023-08-30T11:07:49;1.20;;;0.95;;
74293;SDS011;64044;59.904;10.738;2023-08-30T11:10:16;4.43;;;1.73;;
74293;SDS011;64044;59.904;10.738;2023-08-30T11:12:42;4.38;;;1.20;;
74293;SDS011;64044;59.904;10.738;2023-08-30T11:15:10;3.25;;;1.27;;
74293;SDS011;64044;59.904;10.738;2023-08-30T11:17:39;3.25;;;1.33;;
74293;SDS011;64044;59.904;10.738;2023-08-30T11:20:08;3.05;;;1.00;;
74293;SDS011;64044;59.904;10.738;2023-08-30T11:22:39;1.92;;;0.98;;
74293;SDS011;64044;59.904;10.738;2023-08-30T11:25:10;2.08;;;1.15;;
74293;SDS011;64044;59.904;10.738;2023-08-30T11:27:39;1.00;;;0.73;;
74293;SDS011;64044;59.904;10.738;2023-08-30T11:30:06;1.70;;;1.00;;
74293;SDS011;64044;59.904;10.738;2023-08-30T11:32:37;1.33;;;0.90;;
74293;SDS011;64044;59.904;10.738;2023-08-30T11:35:04;1.90;;;1.30;;
74293;SDS011;64044;59.904;10.738;2023-08-30T11:37:30;1.95;;;0.88;;
74293;SDS011;64044;59.904;10.738;2023-08-30T11:39:57;3.17;;;0.98;;
74293;SDS011;64044;59.904;10.738;2023-08-30T11:42:24;2.38;;;0.93;;
74293;SDS011;64044;59.904;10.738;2023-08-30T11:44:50;1.23;;;0.80;;
74293;SDS011;64044;59.904;10.738;2023-08-30T11:49:49;2.95;;;0.85;;
74293;SDS011;64044;59.904;10.738;2023-08-30T11:52:23;2.67;;;1.00;;
74293;SDS011;64044;59.904;10.738;2023-08-30T11:54:50;1.55;;;0.77;;
74293;SDS011;64044;59.904;10.738;2023-08-30T11:57:16;1.95;;;1.27;;
74293;SDS011;64044;59.904;10.738;2023-08-30T11:59:42;1.55;;;0.88;;
74293;SDS011;64044;59.904;10.738;2023-08-30T12:02:08;2.30;;;0.93;;
74293;SDS011;64044;59.904;10.738;2023-08-30T12:04:40;1.08;;;0.90;;
74293;SDS011;64044;59.904;10.738;2023-08-30T12:07:07;2.53;;;1.20;;
74293;SDS011;64044;59.904;10.738;2023-08-30T12:09:33;2.70;;;0.73;;
74293;SDS011;64044;59.904;10.738;2023-08-30T12:12:32;2.03;;;0.80;;
74293;SDS011;64044;59.904;10.738;2023-08-30T12:14:54;5.28;;;1.17;;
74293;SDS011;64044;59.904;10.738;2023-08-30T12:17:21;1.73;;;0.90;;
74293;SDS011;64044;59.904;10.738;2023-08-30T12:19:54;1.70;;;0.85;;
74293;SDS011;64044;59.904;10.738;2023-08-30T12:22:23;1.95;;;0.90;;
74293;SDS011;64044;59.904;10.738;2023-08-30T12:24:49;1.40;;;1.05;;
74293;SDS011;64044;59.904;10.738;2023-08-30T12:27:15;0.82;;;0.63;;
74293;SDS011;64044;59.904;10.738;2023-08-30T12:29:41;2.00;;;1.00;;
74293;SDS011;64044;59.904;10.738;2023-08-30T12:32:07;0.88;;;0.82;;
74293;SDS011;64044;59.904;10.738;2023-08-30T12:34:33;2.22;;;0.75;;
74293;SDS011;64044;59.904;10.738;2023-08-30T12:36:59;1.17;;;1.00;;
74293;SDS011;64044;59.904;10.738;2023-08-30T12:39:25;2.80;;;0.88;;
74293;SDS011;64044;59.904;10.738;2023-08-30T12:41:50;1.02;;;1.00;;
74293;SDS011;64044;59.904;10.738;2023-08-30T12:44:16;1.55;;;0.90;;
74293;SDS011;64044;59.904;10.738;2023-08-30T12:46:42;1.80;;;0.88;;
74293;SDS011;64044;59.904;10.738;2023-08-30T12:49:07;1.05;;;0.77;;
74293;SDS011;64044;59.904;10.738;2023-08-30T12:51:33;1.75;;;0.68;;
74293;SDS011;64044;59.904;10.738;2023-08-30T12:53:59;0.75;;;0.73;;
74293;SDS011;64044;59.904;10.738;2023-08-30T12:56:24;1.80;;;0.98;;
74293;SDS011;64044;59.904;10.738;2023-08-30T12:58:51;1.20;;;0.80;;
74293;SDS011;64044;59.904;10.738;2023-08-30T13:01:17;1.05;;;0.82;;
74293;SDS011;64044;59.904;10.738;2023-08-30T13:03:43;1.92;;;1.00;;
74293;SDS011;64044;59.904;10.738;2023-08-30T13:06:09;1.10;;;1.00;;
74293;SDS011;64044;59.904;10.738;2023-08-30T13:08:35;1.10;;;0.80;;
74293;SDS011;64044;59.904;10.738;2023-08-30T13:11:00;1.58;;;0.90;;
74293;SDS011;64044;59.904;10.738;2023-08-30T13:13:26;1.35;;;0.80;;
74293;SDS011;64044;59.904;10.738;2023-08-30T13:15:52;1.33;;;0.90;;
74293;SDS011;64044;59.904;10.738;2023-08-30T13:18:17;1.15;;;0.80;;
74293;SDS011;64044;59.904;10.738;2023-08-30T13:20:43;0.85;;;0.80;;
74293;SDS011;64044;59.904;10.738;2023-08-30T13:23:10;0.75;;;0.70;;
74293;SDS011;64044;59.904;10.738;2023-08-30T13:25:39;1.30;;;0.95;;
74293;SDS011;64044;59.904;10.738;2023-08-30T13:28:05;1.27;;;0.80;;
74293;SDS011;64044;59.904;10.738;2023-08-30T13:30:31;1.27;;;0.90;;
74293;SDS011;64044;59.904;10.738;2023-08-30T13:32:56;1.15;;;0.90;;
74293;SDS011;64044;59.904;10.738;2023-08-30T13:35:22;1.63;;;0.90;;
74293;SDS011;64044;59.904;10.738;2023-08-30T13:37:48;1.50;;;1.10;;
74293;SDS011;64044;59.904;10.738;2023-08-30T13:40:15;0.82;;;0.82;;
74293;SDS011;64044;59.904;10.738;2023-08-30T13:42:41;5.15;;;1.20;;
74293;SDS011;64044;59.904;10.738;2023-08-30T13:45:07;2.03;;;0.90;;
74293;SDS011;64044;59.904;10.738;2023-08-30T13:47:34;1.02;;;0.88;;
74293;SDS011;64044;59.904;10.738;2023-08-30T13:50:00;0.77;;;0.77;;
74293;SDS011;64044;59.904;10.738;2023-08-30T13:52:26;1.90;;;1.10;;
74293;SDS011;64044;59.904;10.738;2023-08-30T13:54:54;1.20;;;1.00;;
74293;SDS011;64044;59.904;10.738;2023-08-30T13:57:20;1.35;;;0.88;;
74293;SDS011;64044;59.904;10.738;2023-08-30T13:59:47;1.55;;;1.00;;
74293;SDS011;64044;59.904;10.738;2023-08-30T14:02:12;0.90;;;0.80;;
74293;SDS011;64044;59.904;10.738;2023-08-30T14:04:38;1.75;;;0.90;;
74293;SDS011;64044;59.904;10.738;2023-08-30T14:07:04;1.45;;;0.93;;
74293;SDS011;64044;59.904;10.738;2023-08-30T14:09:29;1.50;;;0.90;;
74293;SDS011;64044;59.904;10.738;2023-08-30T14:11:55;1.20;;;0.98;;
74293;SDS011;64044;59.904;10.738;2023-08-30T14:14:21;1.02;;;0.95;;
74293;SDS011;64044;59.904;10.738;2023-08-30T14:16:47;1.33;;;0.90;;
74293;SDS011;64044;59.904;10.738;2023-08-30T14:19:14;0.60;;;0.60;;
74293;SDS011;64044;59.904;10.738;2023-08-30T14:21:41;1.25;;;0.90;;
74293;SDS011;64044;59.904;10.738;2023-08-30T14:24:06;1.73;;;0.82;;
74293;SDS011;64044;59.904;10.738;2023-08-30T14:26:32;2.08;;;1.00;;
74293;SDS011;64044;59.904;10.738;2023-08-30T14:28:58;0.98;;;0.82;;
74293;SDS011;64044;59.904;10.738;2023-08-30T14:31:24;2.45;;;1.30;;
74293;SDS011;64044;59.904;10.738;2023-08-30T14:33:53;3.78;;;1.00;;
74293;SDS011;64044;59.904;10.738;2023-08-30T14:36:21;4.07;;;1.85;;
74293;SDS011;64044;59.904;10.738;2023-08-30T14:38:47;2.20;;;1.33;;
74293;SDS011;64044;59.904;10.738;2023-08-30T14:41:13;1.88;;;1.30;;
74293;SDS011;64044;59.904;10.738;2023-08-30T14:43:41;1.38;;;1.10;;
74293;SDS011;64044;59.904;10.738;2023-08-30T14:46:07;1.20;;;1.05;;
74293;SDS011;64044;59.904;10.738;2023-08-30T14:48:33;1.17;;;1.02;;
74293;SDS011;64044;59.904;10.738;2023-08-30T14:50:59;1.27;;;0.80;;